createdAt,value
2022-11-05T00:02:25.872Z,90.63
2022-11-05T00:05:21.127Z,90.63
2022-11-05T00:08:12.205Z,90.66
2022-11-05T00:10:44.587Z,90.65
2022-11-05T00:13:46.637Z,90.75
2022-11-05T00:16:35.327Z,90.69
2022-11-05T00:19:10.533Z,90.80
2022-11-05T00:22:00.409Z,90.76
2022-11-05T00:24:50.242Z,90.78
2022-11-05T00:27:22.431Z,90.73
2022-11-05T00:29:54.870Z,90.74
2022-11-05T00:32:28.333Z,90.67
2022-11-05T00:35:00.575Z,90.62
2022-11-05T00:37:33.016Z,90.65
2022-11-05T00:40:06.836Z,90.51
2022-11-05T00:42:57.627Z,90.57
2022-11-05T00:45:30.530Z,90.67
2022-11-05T00:48:20.388Z,90.84
2022-11-05T00:50:52.529Z,91.01
2022-11-05T00:53:24.750Z,91.12
2022-11-05T00:55:57.713Z,91.35
2022-11-05T00:58:30.256Z,91.37
2022-11-05T01:01:03.511Z,91.53
2022-11-05T01:03:37.420Z,91.82
2022-11-05T01:06:15.030Z,92.05
2022-11-05T01:08:48.371Z,92.27
2022-11-05T01:11:34.120Z,92.43
2022-11-05T01:14:08.861Z,92.56
2022-11-05T01:16:42.036Z,92.94
2022-11-05T01:19:14.714Z,92.97
2022-11-05T01:21:46.949Z,93.04
2022-11-05T01:24:18.948Z,93.08
2022-11-05T01:26:51.415Z,93.18
2022-11-05T01:29:23.782Z,93.26
2022-11-05T01:31:55.939Z,93.58
2022-11-05T01:34:28.082Z,93.72
2022-11-05T01:37:00.283Z,94.03
2022-11-05T01:39:32.589Z,94.35
2022-11-05T01:42:03.106Z,94.58
2022-11-05T01:45:09.809Z,94.83
2022-11-05T01:47:49.391Z,95.33
2022-11-05T01:50:32.896Z,95.64
2022-11-05T01:53:09.984Z,95.79
2022-11-05T01:55:45.595Z,96.00
2022-11-05T01:58:23.273Z,96.17
2022-11-05T02:00:56.445Z,96.19
2022-11-05T02:03:29.603Z,96.54
2022-11-05T02:06:04.043Z,96.61
2022-11-05T02:08:50.800Z,96.48
2022-11-05T02:11:24.543Z,96.51
2022-11-05T02:13:58.181Z,96.62
2022-11-05T02:16:42.621Z,96.69
2022-11-05T02:19:36.954Z,96.89
2022-11-05T02:22:36.367Z,96.89
2022-11-05T02:25:32.797Z,96.82
2022-11-05T02:28:26.785Z,96.94
2022-11-05T02:31:04.742Z,96.94
2022-11-05T02:33:45.376Z,96.92
2022-11-05T02:36:30.516Z,96.90
2022-11-05T02:39:14.097Z,96.78
2022-11-05T02:42:02.042Z,96.84
2022-11-05T02:44:43.680Z,96.69
2022-11-05T02:47:21.821Z,96.62
2022-11-05T02:50:04.092Z,96.63
2022-11-05T02:52:38.402Z,96.64
2022-11-05T02:58:07.926Z,96.46
2022-11-05T03:00:45.006Z,96.28
2022-11-05T03:03:24.103Z,96.26
2022-11-05T03:06:32.899Z,96.31
2022-11-05T03:09:21.365Z,96.29
2022-11-05T03:12:06.080Z,96.24
2022-11-05T03:14:46.574Z,96.13
2022-11-05T03:17:26.032Z,95.89
2022-11-05T03:20:09.749Z,95.80
2022-11-05T03:22:46.560Z,95.61
2022-11-05T03:25:22.857Z,95.47
2022-11-05T03:27:59.894Z,95.39
2022-11-05T03:30:34.866Z,95.30
2022-11-05T03:33:12.961Z,95.27
2022-11-05T03:35:49.480Z,95.21
2022-11-05T03:38:27.083Z,94.92
2022-11-05T03:41:01.703Z,94.83
2022-11-05T03:43:39.438Z,94.71
2022-11-05T03:46:15.652Z,94.56
2022-11-05T03:48:53.150Z,94.43
2022-11-05T03:51:34.118Z,94.25
2022-11-05T03:54:07.467Z,94.11
2022-11-05T03:56:46.566Z,93.96
2022-11-05T03:59:21.214Z,93.91
2022-11-05T04:01:54.907Z,93.93
2022-11-05T04:04:27.161Z,93.76
2022-11-05T04:07:31.160Z,93.57
2022-11-05T04:10:26.196Z,93.49
2022-11-05T04:13:15.560Z,93.41
2022-11-05T04:16:05.145Z,93.14
2022-11-05T04:18:37.756Z,93.02
2022-11-05T04:21:30.316Z,92.98
2022-11-05T04:24:11.536Z,92.74
2022-11-05T04:26:45.434Z,92.64
2022-11-05T04:29:34.967Z,92.52
2022-11-05T04:32:07.563Z,92.48
2022-11-05T04:34:39.541Z,92.42
2022-11-05T04:37:11.820Z,92.42
2022-11-05T04:39:43.830Z,92.39
2022-11-05T04:42:14.397Z,92.49
2022-11-05T04:44:46.588Z,92.45
2022-11-05T04:47:18.698Z,92.43
2022-11-05T04:49:49.194Z,92.42
2022-11-05T04:52:21.555Z,92.39
2022-11-05T04:54:53.709Z,92.46
2022-11-05T04:57:24.154Z,92.51
2022-11-05T04:59:56.323Z,92.62
2022-11-05T05:02:28.630Z,92.70
2022-11-05T05:05:00.762Z,92.79
2022-11-05T05:07:31.321Z,92.89
2022-11-05T05:10:04.626Z,93.19
2022-11-05T05:12:37.208Z,93.35
2022-11-05T05:15:10.566Z,93.44
2022-11-05T05:17:42.638Z,93.59
2022-11-05T05:20:30.195Z,93.77
2022-11-05T05:23:02.264Z,93.86
2022-11-05T05:25:32.649Z,94.00
2022-11-05T05:28:04.779Z,94.17
2022-11-05T05:30:37.216Z,94.29
2022-11-05T05:33:09.554Z,94.40
2022-11-05T05:35:42.434Z,94.44
2022-11-05T05:38:14.411Z,94.54
2022-11-05T05:40:46.500Z,94.61
2022-11-05T05:43:17.057Z,94.76
2022-11-05T05:45:49.169Z,94.71
2022-11-05T05:48:21.408Z,94.79
2022-11-05T05:50:53.390Z,94.78
2022-11-05T05:53:25.484Z,94.74
2022-11-05T05:55:56.044Z,94.77
2022-11-05T05:58:32.123Z,94.76
2022-11-05T06:01:07.657Z,94.77
2022-11-05T06:03:39.871Z,94.64
2022-11-05T06:06:14.291Z,94.62
2022-11-05T06:08:46.821Z,94.55
2022-11-05T06:11:19.357Z,94.60
2022-11-05T06:13:51.541Z,94.58
2022-11-05T06:16:22.255Z,94.53
2022-11-05T06:18:54.413Z,94.53
2022-11-05T06:21:31.446Z,94.44
2022-11-05T06:24:05.177Z,94.51
2022-11-05T06:26:43.626Z,94.48
2022-11-05T06:29:33.946Z,94.37
2022-11-05T06:32:08.801Z,94.31
2022-11-05T06:35:01.667Z,94.34
2022-11-05T06:37:35.002Z,94.38
2022-11-05T06:40:09.470Z,94.38
2022-11-05T06:42:45.861Z,94.38
2022-11-05T06:45:18.369Z,94.30
2022-11-05T06:48:10.118Z,94.19
2022-11-05T06:51:08.278Z,94.09
2022-11-05T06:53:45.237Z,93.99
2022-11-05T06:56:17.709Z,93.92
2022-11-05T06:59:02.876Z,93.88
2022-11-05T07:01:35.146Z,93.89
2022-11-05T07:04:07.716Z,93.86
2022-11-05T07:06:40.024Z,93.79
2022-11-05T07:09:12.246Z,93.80
2022-11-05T07:11:43.049Z,93.69
2022-11-05T07:14:15.277Z,93.78
2022-11-05T07:16:45.845Z,93.67
2022-11-05T07:19:21.404Z,93.62
2022-11-05T07:22:00.483Z,93.47
2022-11-05T07:24:38.942Z,93.39
2022-11-05T07:27:24.648Z,93.46
2022-11-05T07:30:05.609Z,93.64
2022-11-05T07:32:47.169Z,93.63
2022-11-05T07:35:25.273Z,93.50
2022-11-05T07:37:59.923Z,93.60
2022-11-05T07:40:32.544Z,93.69
2022-11-05T07:43:07.266Z,93.60
2022-11-05T07:45:46.780Z,93.57
2022-11-05T07:48:19.607Z,93.55
2022-11-05T07:51:00.499Z,93.61
2022-11-05T07:53:33.882Z,93.54
2022-11-05T07:56:06.910Z,93.58
2022-11-05T07:58:39.058Z,93.46
2022-11-05T08:01:11.935Z,93.49
2022-11-05T08:03:44.339Z,93.41
2022-11-05T08:06:17.675Z,93.49
2022-11-05T08:08:49.955Z,93.49
2022-11-05T08:11:21.999Z,93.43
2022-11-05T08:13:53.181Z,93.65
2022-11-05T08:16:31.517Z,93.76
2022-11-05T08:19:04.819Z,93.76
2022-11-05T08:21:37.241Z,93.82
2022-11-05T08:24:11.898Z,94.02
2022-11-05T08:26:44.318Z,94.03
2022-11-05T08:29:16.617Z,93.92
2022-11-05T08:31:48.739Z,93.90
2022-11-05T08:34:20.891Z,93.86
2022-11-05T08:36:51.482Z,93.90
2022-11-05T08:39:23.540Z,93.98
2022-11-05T08:41:54.082Z,93.94
2022-11-05T08:44:26.160Z,93.86
2022-11-05T08:46:56.831Z,93.85
2022-11-05T08:49:29.771Z,93.89
2022-11-05T08:52:01.940Z,93.92
2022-11-05T08:54:34.053Z,94.11
2022-11-05T08:57:04.569Z,94.27
2022-11-05T08:59:36.734Z,94.34
2022-11-05T09:02:10.485Z,94.49
2022-11-05T09:04:42.702Z,94.67
2022-11-05T09:07:14.927Z,94.66
2022-11-05T09:09:47.053Z,94.66
2022-11-05T09:12:17.815Z,94.60
2022-11-05T09:14:50.243Z,94.50
2022-11-05T09:17:21.828Z,94.31
2022-11-05T09:19:53.871Z,94.30
2022-11-05T09:22:26.033Z,94.19
2022-11-05T09:24:58.611Z,94.14
2022-11-05T09:27:31.727Z,93.89
2022-11-05T09:30:04.153Z,93.69
2022-11-05T09:32:36.767Z,93.63
2022-11-05T09:35:10.686Z,93.74
2022-11-05T09:37:42.894Z,93.51
2022-11-05T09:40:19.532Z,93.39
2022-11-05T09:42:55.096Z,93.32
2022-11-05T09:45:31.659Z,93.48
2022-11-05T09:48:11.647Z,93.50
2022-11-05T09:50:46.880Z,93.23
2022-11-05T09:53:20.586Z,93.15
2022-11-05T09:55:55.553Z,92.97
2022-11-05T09:58:45.580Z,92.89
2022-11-05T10:01:24.186Z,92.49
2022-11-05T10:04:01.089Z,92.23
2022-11-05T10:06:33.451Z,92.11
2022-11-05T10:09:10.110Z,91.99
2022-11-05T10:11:46.931Z,91.44
2022-11-05T10:14:24.597Z,91.11
2022-11-05T10:17:02.418Z,91.25
2022-11-05T10:19:48.408Z,91.14
2022-11-05T10:22:21.610Z,90.99
2022-11-05T10:24:54.767Z,90.72
2022-11-05T10:27:30.897Z,90.56
2022-11-05T10:30:03.491Z,89.94
2022-11-05T10:32:39.557Z,89.86
2022-11-05T10:35:18.675Z,89.51
2022-11-05T10:37:53.505Z,89.55
2022-11-05T10:40:33.146Z,89.54
2022-11-05T10:43:11.796Z,89.02
2022-11-05T10:45:56.550Z,89.15
2022-11-05T10:48:53.735Z,88.86
2022-11-05T10:51:26.565Z,88.66
2022-11-05T10:54:03.237Z,88.01
2022-11-05T10:56:38.315Z,87.53
2022-11-05T10:59:28.270Z,86.97
2022-11-05T11:02:04.536Z,86.54
2022-11-05T11:04:38.261Z,86.26
2022-11-05T11:07:22.560Z,86.08
2022-11-05T11:09:55.313Z,85.33
2022-11-05T11:12:30.510Z,86.25
2022-11-05T11:15:15.514Z,86.04
2022-11-05T11:17:48.222Z,85.92
2022-11-05T11:20:29.790Z,85.29
2022-11-05T11:23:16.077Z,85.22
2022-11-05T11:25:52.849Z,84.64
2022-11-05T11:28:29.705Z,84.57
2022-11-05T11:31:08.968Z,84.33
2022-11-05T11:33:43.477Z,84.39
2022-11-05T11:36:18.787Z,83.91
2022-11-05T11:38:50.894Z,83.75
2022-11-05T11:41:31.560Z,83.50
2022-11-05T11:44:08.951Z,83.90
2022-11-05T11:46:42.110Z,84.05
2022-11-05T11:49:34.364Z,83.90
2022-11-05T11:52:12.002Z,83.77
2022-11-05T11:54:44.514Z,84.25
2022-11-05T11:57:37.939Z,84.89
2022-11-05T12:00:12.883Z,85.24
2022-11-05T12:03:21.433Z,85.65
2022-11-05T12:06:01.197Z,85.89
2022-11-05T12:08:45.524Z,86.27
2022-11-05T12:11:28.080Z,86.45
2022-11-05T12:14:05.513Z,86.69
2022-11-05T12:16:52.731Z,87.17
2022-11-05T12:19:52.693Z,87.62
2022-11-05T12:22:36.682Z,88.11
2022-11-05T12:25:20.093Z,88.44
2022-11-05T12:28:04.979Z,88.91
2022-11-05T12:30:55.045Z,89.14
2022-11-05T12:33:43.659Z,89.01
2022-11-05T12:36:33.016Z,88.89
2022-11-05T12:39:23.105Z,88.64
2022-11-05T12:42:03.332Z,88.60
2022-11-05T12:44:52.424Z,87.84
2022-11-05T12:47:54.601Z,87.76
2022-11-05T12:50:32.684Z,87.86
2022-11-05T12:53:32.556Z,87.44
2022-11-05T12:56:10.578Z,87.27
2022-11-05T12:58:47.132Z,87.20
2022-11-05T13:01:25.997Z,86.71
2022-11-05T13:04:02.380Z,86.04
2022-11-05T13:06:40.822Z,85.60
2022-11-05T13:09:18.272Z,85.85
2022-11-05T13:11:55.454Z,86.01
2022-11-05T13:14:31.987Z,86.09
2022-11-05T13:17:08.311Z,86.13
2022-11-05T13:19:47.162Z,85.96
2022-11-05T13:22:30.042Z,86.00
2022-11-05T13:25:06.739Z,85.77
2022-11-05T13:27:50.085Z,85.43
2022-11-05T13:30:27.853Z,85.33
2022-11-05T13:33:04.212Z,85.47
2022-11-05T13:35:42.790Z,85.09
2022-11-05T13:38:42.995Z,84.79
2022-11-05T13:41:28.374Z,84.45
2022-11-05T13:44:14.176Z,84.70
2022-11-05T13:47:03.287Z,84.51
2022-11-05T13:49:57.324Z,84.57
2022-11-05T13:52:49.845Z,84.57
2022-11-05T13:55:46.651Z,84.84
2022-11-05T13:58:56.991Z,84.67
2022-11-05T14:01:48.286Z,84.86
2022-11-05T14:04:32.214Z,84.78
2022-11-05T14:07:14.001Z,84.27
2022-11-05T14:09:48.595Z,84.23
2022-11-05T14:12:28.109Z,84.38
2022-11-05T14:15:08.673Z,84.52
2022-11-05T14:18:00.724Z,84.19
2022-11-05T14:20:48.273Z,84.33
2022-11-05T14:23:52.600Z,84.24
2022-11-05T14:26:27.216Z,84.41
2022-11-05T14:29:41.235Z,84.57
2022-11-05T14:35:37.814Z,84.57
2022-11-05T14:38:22.300Z,84.42
2022-11-05T14:41:02.660Z,84.44
2022-11-05T14:43:37.055Z,84.73
2022-11-05T14:46:11.677Z,84.88
2022-11-05T14:48:48.205Z,84.89
2022-11-05T14:51:32.909Z,84.95
2022-11-05T14:54:08.855Z,85.07
2022-11-05T14:56:54.948Z,84.95
2022-11-05T14:59:54.319Z,85.06
2022-11-05T15:02:28.992Z,85.16
2022-11-05T15:05:38.058Z,85.30
2022-11-05T15:08:58.902Z,85.48
2022-11-05T15:15:01.655Z,85.54
2022-11-05T15:18:00.202Z,85.67
2022-11-05T15:24:18.589Z,85.64
2022-11-05T15:27:19.443Z,85.72
2022-11-05T15:29:52.166Z,85.91
2022-11-05T15:32:37.366Z,85.66
2022-11-05T15:35:31.179Z,85.64
2022-11-05T15:38:04.273Z,85.62
2022-11-05T15:40:36.762Z,85.68
2022-11-05T15:43:10.886Z,85.68
2022-11-05T15:45:43.169Z,85.66
2022-11-05T15:48:20.416Z,85.81
2022-11-05T15:50:52.670Z,85.85
2022-11-05T15:56:27.556Z,85.53
2022-11-05T15:59:05.773Z,85.44
2022-11-05T16:01:47.053Z,85.42
2022-11-05T16:04:23.188Z,85.22
2022-11-05T16:06:57.195Z,84.98
2022-11-05T16:09:31.271Z,84.92
2022-11-05T16:12:25.114Z,84.95
2022-11-05T16:15:04.439Z,84.89
2022-11-05T16:17:50.040Z,84.87
2022-11-05T16:20:28.947Z,84.57
2022-11-05T16:23:02.948Z,84.52
2022-11-05T16:25:39.960Z,84.55
2022-11-05T16:28:23.428Z,84.43
2022-11-05T16:30:59.281Z,84.54
2022-11-05T16:33:40.359Z,84.46
2022-11-05T16:36:14.183Z,84.68
2022-11-05T16:38:46.479Z,84.50
2022-11-05T16:41:22.414Z,84.50
2022-11-05T16:43:57.727Z,84.52
2022-11-05T16:46:32.018Z,84.67
2022-11-05T16:49:05.502Z,84.64
2022-11-05T16:52:02.622Z,84.68
2022-11-05T16:54:46.509Z,84.83
2022-11-05T16:57:25.447Z,84.99
2022-11-05T16:59:59.729Z,84.85
2022-11-05T17:02:39.614Z,84.84
2022-11-05T17:05:20.427Z,84.86
2022-11-05T17:07:53.678Z,85.09
2022-11-05T17:10:27.388Z,84.93
2022-11-05T17:12:59.785Z,85.07
2022-11-05T17:15:35.751Z,85.09
2022-11-05T17:18:18.855Z,85.10
2022-11-05T17:20:53.264Z,84.87
2022-11-05T17:23:28.871Z,84.92
2022-11-05T17:26:07.549Z,85.12
2022-11-05T17:28:40.738Z,85.12
2022-11-05T17:31:15.312Z,85.23
2022-11-05T17:33:51.143Z,85.22
2022-11-05T17:36:23.812Z,85.06
2022-11-05T17:38:56.530Z,84.96
2022-11-05T17:41:29.196Z,84.96
2022-11-05T17:44:02.275Z,84.75
2022-11-05T17:46:35.088Z,84.57
2022-11-05T17:49:07.908Z,84.74
2022-11-05T17:51:40.441Z,84.77
2022-11-05T17:54:13.964Z,85.06
2022-11-05T17:56:46.192Z,85.60
2022-11-05T17:59:19.201Z,85.53
2022-11-05T18:01:51.528Z,85.52
2022-11-05T18:04:24.765Z,85.44
2022-11-05T18:06:59.644Z,85.41
2022-11-05T18:09:34.430Z,85.53
2022-11-05T18:12:09.295Z,85.63
2022-11-05T18:14:43.841Z,85.77
2022-11-05T18:17:22.199Z,85.90
2022-11-05T18:19:54.576Z,86.05
2022-11-05T18:22:29.649Z,86.25
2022-11-05T18:25:05.412Z,86.37
2022-11-05T18:27:38.426Z,86.43
2022-11-05T18:30:18.128Z,86.36
2022-11-05T18:32:51.214Z,86.53
2022-11-05T18:35:24.152Z,86.72
2022-11-05T18:38:01.296Z,86.96
2022-11-05T18:40:33.523Z,86.74
2022-11-05T18:43:06.010Z,86.82
2022-11-05T18:45:38.443Z,86.64
2022-11-05T18:48:09.635Z,86.72
2022-11-05T18:50:43.261Z,86.78
2022-11-05T18:53:15.625Z,86.91
2022-11-05T18:55:47.684Z,87.09
2022-11-05T18:58:20.655Z,87.09
2022-11-05T19:00:52.939Z,87.07
2022-11-05T19:03:26.891Z,86.87
2022-11-05T19:06:03.340Z,86.86
2022-11-05T19:08:35.783Z,87.02
2022-11-05T19:11:15.697Z,87.03
2022-11-05T19:13:54.322Z,87.09
2022-11-05T19:16:27.761Z,87.37
2022-11-05T19:19:03.800Z,87.20
2022-11-05T19:21:36.113Z,87.10
2022-11-05T19:24:09.578Z,87.19
2022-11-05T19:26:41.959Z,87.12
2022-11-05T19:29:17.292Z,86.88
2022-11-05T19:31:50.138Z,87.32
2022-11-05T19:34:22.372Z,87.33
2022-11-05T19:36:54.651Z,87.19
2022-11-05T19:39:29.559Z,87.33
2022-11-05T19:42:03.950Z,87.64
2022-11-05T19:44:40.099Z,87.73
2022-11-05T19:47:13.649Z,87.51
2022-11-05T19:49:46.673Z,87.48
2022-11-05T19:52:20.130Z,87.70
2022-11-05T19:54:52.716Z,87.56
2022-11-05T19:57:25.181Z,87.57
2022-11-05T20:00:09.306Z,87.68
2022-11-05T20:02:46.647Z,87.53
2022-11-05T20:05:19.478Z,87.62
2022-11-05T20:07:53.209Z,87.77
2022-11-05T20:10:26.098Z,87.59
2022-11-05T20:13:00.449Z,87.51
2022-11-05T20:15:33.074Z,87.51
2022-11-05T20:18:06.215Z,87.46
2022-11-05T20:20:42.276Z,87.67
2022-11-05T20:23:15.507Z,87.74
2022-11-05T20:25:49.498Z,87.57
2022-11-05T20:28:21.834Z,87.75
2022-11-05T20:30:57.361Z,87.88
2022-11-05T20:33:33.632Z,87.59
2022-11-05T20:36:13.477Z,87.24
2022-11-05T20:38:48.628Z,87.57
2022-11-05T20:41:20.995Z,87.62
2022-11-05T20:43:55.900Z,87.58
2022-11-05T20:46:28.728Z,87.48
2022-11-05T20:49:01.075Z,87.56
2022-11-05T20:51:34.032Z,87.58
2022-11-05T20:54:08.224Z,87.60
2022-11-05T20:56:45.946Z,87.41
2022-11-05T20:59:18.071Z,87.30
2022-11-05T21:01:49.164Z,87.29
2022-11-05T21:04:22.305Z,87.33
2022-11-05T21:06:54.801Z,87.58
2022-11-05T21:09:25.258Z,87.69
2022-11-05T21:12:12.784Z,87.78
2022-11-05T21:14:45.878Z,87.70
2022-11-05T21:17:17.953Z,87.99
2022-11-05T21:19:50.014Z,88.14
2022-11-05T21:22:22.084Z,88.25
2022-11-05T21:24:54.315Z,88.09
2022-11-05T21:27:26.729Z,88.17
2022-11-05T21:29:58.776Z,88.17
2022-11-05T21:32:31.005Z,88.20
2022-11-05T21:35:03.269Z,88.20
2022-11-05T21:37:35.547Z,88.37
2022-11-05T21:40:09.060Z,88.30
2022-11-05T21:42:41.140Z,88.40
2022-11-05T21:45:13.427Z,88.50
2022-11-05T21:47:45.485Z,88.52
2022-11-05T21:50:21.747Z,88.35
2022-11-05T21:53:11.779Z,88.23
2022-11-05T21:56:02.315Z,87.67
2022-11-05T21:58:52.088Z,87.47
2022-11-05T22:01:24.312Z,87.50
2022-11-05T22:04:01.717Z,87.53
2022-11-05T22:06:36.246Z,87.73
2022-11-05T22:09:08.568Z,87.74
2022-11-05T22:11:40.676Z,87.48
2022-11-05T22:14:12.743Z,87.63
2022-11-05T22:16:44.966Z,87.85
2022-11-05T22:19:17.487Z,87.78
2022-11-05T22:21:49.953Z,87.94
2022-11-05T22:24:22.867Z,87.85
2022-11-05T22:26:55.817Z,87.76
2022-11-05T22:29:28.356Z,87.71
2022-11-05T22:32:00.857Z,87.66
2022-11-05T22:34:32.986Z,87.72
2022-11-05T22:37:03.635Z,87.51
2022-11-05T22:39:35.653Z,87.50
2022-11-05T22:42:08.866Z,87.49
2022-11-05T22:44:41.509Z,87.41
2022-11-05T22:47:14.158Z,87.47
2022-11-05T22:49:46.463Z,87.65
2022-11-05T22:52:16.852Z,87.91
2022-11-05T22:54:49.423Z,87.92
2022-11-05T22:57:21.586Z,87.80
2022-11-05T22:59:53.600Z,87.84
2022-11-05T23:02:24.411Z,87.95
2022-11-05T23:04:56.738Z,87.75
2022-11-05T23:07:46.633Z,87.65
2022-11-05T23:10:36.535Z,87.56
2022-11-05T23:13:08.902Z,87.73
2022-11-05T23:15:58.790Z,87.67
2022-11-05T23:18:48.836Z,87.61
2022-11-05T23:21:38.442Z,87.62
2022-11-05T23:24:11.175Z,87.74
2022-11-05T23:26:52.667Z,87.43
2022-11-05T23:29:27.428Z,87.38
2022-11-05T23:32:17.393Z,87.52
2022-11-05T23:34:49.829Z,87.52
2022-11-05T23:37:40.139Z,87.68
2022-11-05T23:40:15.044Z,87.75
2022-11-05T23:43:04.933Z,87.58
2022-11-05T23:45:57.798Z,87.50
2022-11-05T23:48:33.816Z,87.46
2022-11-05T23:51:08.846Z,87.37
2022-11-05T23:53:42.605Z,87.64
2022-11-05T23:56:16.560Z,87.47
2022-11-05T23:58:48.669Z,87.16
